Portada
METAR-TAF:

METAR-TAF

Aeroports :

Hazleton, Pennsilvània, Estats Units d'Amèrica

latitud: 40-59-12N, longitud: 075-59-42W, altitud: 489 m

Observació

L'informe es va fer fa 18 minuts, a les 01:15 UTC
Vent 9 kt del Oest/Nord-Oest amb ràfegues de 17 kt
Temperatura -3°C
Humitat 46%
Pressió 1013 hPa
Visibilitat: 16.1 km
Cel clar

METAR: KHZL 050115Z AUTO 30009G17KT 10SM CLR M03/M13 A2992 RMK AO2

Hora: 20:33 (01:33 UTC)


TAF: manca

Observacions i pronòstics meteorològics de més de 4000 aeroports (METAR i TAF).

Les estacions disponibles són els punts grocs i vermells al mapa.

Posi el ratolí al punt desitjat per veure el nom de l'estació.

Feu clic per veure les observacions i els pronòstics meteorològics.

Per canviar el mapa: feu clic els botons verds amb una creu de color negre per apropar; al botó verd amb un guió per allunyar la imatge; o en les fletxes verdes per a mapes adjacents.


METAR-TAF: